Timmer, North Dakota
Current Conditions -  °F | °C
As of 7:15 PM on Tuesday 27 Jan 2015 (Local Time) from K7L2 Reporting Station
Clear Clear  
Wind Chill: 30°   Ceiling: Unl
Heat Index: 37°   Visibility: 10mi
Dew Point: 37°   Wind: 10mph
Humidity: 100%   Direction: 130°SE
Pressure: 29.82"   Gusts: NA
Location:  46.2767°N, 100.811°W
Report Text: K7L2 280115Z AUTO 13009KT 10SM CLR 03/03 A2982 RMK AO2
Loading
Personal Weather Stations






























Interactive Weather Map New forecast layout! Learn more

10-Day Weather Forecast

Advertisements
Track Severe Weather on mobile